createdAt,value
2018-08-03T00:01:26.667Z,65.20
2018-08-03T00:03:54.347Z,65.30
2018-08-03T00:06:21.962Z,65.40
2018-08-03T00:08:49.651Z,65.80
2018-08-03T00:11:17.285Z,66.20
2018-08-03T00:13:44.927Z,66.20
2018-08-03T00:16:12.586Z,66.30
2018-08-03T00:18:40.195Z,66.20
2018-08-03T00:21:08.083Z,66.20
2018-08-03T00:23:35.871Z,66.30
2018-08-03T00:26:03.480Z,66.40
2018-08-03T00:28:31.076Z,66.30
2018-08-03T00:30:58.706Z,66.60
2018-08-03T00:33:26.371Z,66.70
2018-08-03T00:35:53.995Z,67.00
2018-08-03T00:38:21.614Z,67.00
2018-08-03T00:40:49.207Z,67.30
2018-08-03T00:43:16.845Z,67.60
2018-08-03T00:45:44.503Z,67.70
2018-08-03T00:48:12.282Z,68.00
2018-08-03T00:50:39.962Z,67.80
2018-08-03T00:53:07.638Z,67.90
2018-08-03T00:55:35.245Z,67.90
2018-08-03T00:58:02.902Z,68.20
2018-08-03T01:00:30.539Z,68.60
2018-08-03T01:02:58.185Z,68.60
2018-08-03T01:05:25.952Z,68.60
2018-08-03T01:07:53.552Z,68.60
2018-08-03T01:10:21.268Z,68.70
2018-08-03T01:12:48.900Z,68.80
2018-08-03T01:15:16.568Z,68.90
2018-08-03T01:20:11.788Z,68.90
2018-08-03T01:22:39.431Z,68.80
2018-08-03T01:25:07.070Z,69.20
2018-08-03T01:27:34.679Z,70.50
2018-08-03T01:30:02.428Z,69.60
2018-08-03T01:32:30.068Z,69.60
2018-08-03T01:34:57.672Z,69.80
2018-08-03T01:37:25.308Z,70.00
2018-08-03T01:39:52.938Z,70.10
2018-08-03T01:42:20.514Z,71.00
2018-08-03T01:44:48.500Z,70.40
2018-08-03T01:47:16.176Z,70.40
2018-08-03T01:49:43.820Z,70.40
2018-08-03T01:52:11.444Z,70.40
2018-08-03T01:54:39.064Z,70.80
2018-08-03T01:57:06.710Z,70.80
2018-08-03T01:59:34.381Z,70.90
2018-08-03T02:02:02.022Z,71.10
2018-08-03T02:04:29.648Z,71.10
2018-08-03T02:06:57.373Z,71.00
2018-08-03T02:09:24.996Z,71.10
2018-08-03T02:11:52.641Z,71.10
2018-08-03T02:14:20.264Z,71.00
2018-08-03T02:19:15.549Z,70.80
2018-08-03T02:21:43.246Z,71.00
2018-08-03T02:24:10.880Z,71.10
2018-08-03T02:26:38.497Z,71.00
2018-08-03T02:29:06.133Z,70.80
2018-08-03T02:31:33.767Z,70.80
2018-08-03T02:34:01.397Z,71.00
2018-08-03T02:36:29.039Z,71.00
2018-08-03T02:38:56.638Z,71.00
2018-08-03T02:43:51.838Z,71.50
2018-08-03T02:46:19.498Z,71.50
2018-08-03T02:48:47.142Z,71.70
2018-08-03T02:51:14.764Z,71.70
2018-08-03T02:53:42.384Z,71.70
2018-08-03T02:56:10.229Z,71.70
2018-08-03T02:58:37.876Z,71.90
2018-08-03T03:01:05.513Z,72.60
2018-08-03T03:03:33.162Z,72.70
2018-08-03T03:06:00.811Z,72.90
2018-08-03T03:08:28.445Z,72.90
2018-08-03T03:10:56.059Z,72.90
2018-08-03T03:15:51.244Z,72.90
2018-08-03T03:18:18.884Z,72.90
2018-08-03T03:20:46.554Z,72.90
2018-08-03T03:23:14.169Z,73.30
2018-08-03T03:25:41.776Z,73.50
2018-08-03T03:28:09.413Z,73.50
2018-08-03T03:30:37.012Z,73.50
2018-08-03T03:33:04.640Z,73.70
2018-08-03T03:35:32.284Z,73.90
2018-08-03T03:40:27.441Z,73.90
2018-08-03T03:42:55.061Z,73.90
2018-08-03T03:45:22.736Z,74.10
2018-08-03T03:47:50.335Z,74.10
2018-08-03T03:50:17.936Z,74.10
2018-08-03T03:52:45.572Z,74.20
2018-08-03T03:55:13.203Z,74.10
2018-08-03T03:57:40.797Z,74.30
2018-08-03T04:00:08.453Z,74.30
2018-08-03T04:02:36.484Z,74.20
2018-08-03T04:05:04.851Z,74.10
2018-08-03T04:07:32.513Z,74.10
2018-08-03T04:10:00.100Z,74.10
2018-08-03T04:12:27.832Z,74.40
2018-08-03T04:14:55.373Z,74.70
2018-08-03T04:17:23.013Z,74.60
2018-08-03T04:19:50.635Z,74.80
2018-08-03T04:22:18.257Z,75.10
2018-08-03T04:27:13.459Z,74.80
2018-08-03T04:29:41.081Z,74.70
2018-08-03T04:32:08.725Z,74.70
2018-08-03T04:34:36.405Z,75.10
2018-08-03T04:37:04.159Z,75.10
2018-08-03T04:39:31.819Z,75.40
2018-08-03T04:41:59.445Z,75.50
2018-08-03T04:44:27.059Z,75.70
2018-08-03T04:46:54.669Z,75.70
2018-08-03T04:51:49.883Z,75.50
2018-08-03T04:54:17.495Z,75.40
2018-08-03T04:56:45.117Z,75.70
2018-08-03T05:01:40.293Z,75.50
2018-08-03T05:04:08.190Z,75.30
2018-08-03T05:06:35.915Z,74.80
2018-08-03T05:09:05.371Z,74.80
2018-08-03T05:11:33.075Z,74.70
2018-08-03T05:14:00.713Z,74.60
2018-08-03T05:16:28.363Z,74.30
2018-08-03T05:18:55.981Z,74.30
2018-08-03T05:21:23.601Z,74.50
2018-08-03T05:23:51.195Z,74.60
2018-08-03T05:26:18.817Z,74.60
2018-08-03T05:28:46.463Z,74.50
2018-08-03T05:31:14.115Z,74.20
2018-08-03T05:33:41.735Z,73.80
2018-08-03T05:36:09.511Z,73.60
2018-08-03T05:38:37.051Z,73.40
2018-08-03T05:41:04.935Z,73.20
2018-08-03T05:43:32.581Z,73.10
2018-08-03T05:46:00.247Z,72.80
2018-08-03T05:48:28.167Z,72.60
2018-08-03T05:50:55.802Z,72.40
2018-08-03T05:53:23.430Z,72.40
2018-08-03T05:55:51.069Z,72.30
2018-08-03T05:58:18.687Z,72.00
2018-08-03T06:00:46.351Z,71.60
2018-08-03T06:03:14.167Z,71.40
2018-08-03T06:05:41.786Z,71.20
2018-08-03T06:08:09.425Z,70.80
2018-08-03T06:10:37.116Z,70.50
2018-08-03T06:13:04.939Z,70.30
2018-08-03T06:15:32.541Z,70.20
2018-08-03T06:18:00.214Z,69.90
2018-08-03T06:20:27.859Z,69.80
2018-08-03T06:22:55.565Z,69.30
2018-08-03T06:25:23.266Z,69.20
2018-08-03T06:27:50.883Z,69.10
2018-08-03T06:30:18.519Z,68.90
2018-08-03T06:32:46.211Z,68.80
2018-08-03T06:35:13.807Z,68.70
2018-08-03T06:42:36.613Z,67.80
2018-08-03T06:45:04.362Z,67.40
2018-08-03T06:47:31.986Z,67.20
2018-08-03T06:49:59.641Z,66.70
2018-08-03T06:52:27.282Z,66.30
2018-08-03T06:54:54.926Z,65.60
2018-08-03T06:57:22.622Z,64.90
2018-08-03T06:59:50.337Z,64.50
2018-08-03T07:02:18.076Z,64.10
2018-08-03T07:04:45.756Z,63.50
2018-08-03T07:07:13.410Z,62.90
2018-08-03T07:09:41.348Z,62.60
2018-08-03T07:12:08.988Z,62.20
2018-08-03T07:14:36.697Z,61.50
2018-08-03T07:17:04.286Z,61.10
2018-08-03T07:19:31.944Z,60.80
2018-08-03T07:21:59.622Z,60.40
2018-08-03T07:24:27.243Z,59.90
2018-08-03T07:26:54.897Z,59.60
2018-08-03T07:29:22.504Z,59.20
2018-08-03T07:31:50.143Z,59.00
2018-08-03T07:34:17.760Z,58.80
2018-08-03T07:36:45.416Z,58.40
2018-08-03T07:39:13.065Z,57.90
2018-08-03T07:41:40.700Z,57.60
2018-08-03T07:44:08.348Z,57.30
2018-08-03T07:46:36.003Z,56.90
2018-08-03T07:49:03.664Z,56.80
2018-08-03T07:51:31.312Z,56.70
2018-08-03T07:53:58.972Z,56.60
2018-08-03T07:56:26.578Z,56.40
2018-08-03T07:58:54.198Z,56.10
2018-08-03T08:01:21.825Z,55.70
2018-08-03T08:03:49.472Z,55.40
2018-08-03T08:06:17.161Z,55.10
2018-08-03T08:11:12.358Z,55.40
2018-08-03T08:13:40.166Z,55.20
2018-08-03T08:16:07.864Z,54.90
2018-08-03T08:18:35.500Z,54.80
2018-08-03T08:21:03.177Z,55.00
2018-08-03T08:23:30.845Z,55.10
2018-08-03T08:25:58.441Z,54.70
2018-08-03T08:28:26.084Z,54.60
2018-08-03T08:30:53.688Z,54.60
2018-08-03T08:33:21.343Z,54.50
2018-08-03T08:35:48.969Z,54.20
2018-08-03T08:38:16.603Z,53.90
2018-08-03T08:40:44.302Z,53.50
2018-08-03T08:43:11.982Z,53.10
2018-08-03T08:45:39.639Z,52.90
2018-08-03T08:48:07.505Z,53.10
2018-08-03T08:50:35.164Z,52.90
2018-08-03T08:53:02.907Z,52.50
2018-08-03T08:55:30.560Z,52.20
2018-08-03T08:57:58.239Z,51.50
2018-08-03T09:00:25.901Z,51.40
2018-08-03T09:02:53.561Z,50.90
2018-08-03T09:05:21.360Z,50.50
2018-08-03T09:07:49.014Z,50.40
2018-08-03T09:10:16.868Z,50.00
2018-08-03T09:12:44.530Z,50.10
2018-08-03T09:15:12.206Z,49.80
2018-08-03T09:17:39.849Z,49.40
2018-08-03T09:20:07.515Z,48.80
2018-08-03T09:22:35.174Z,48.30
2018-08-03T09:25:02.920Z,47.80
2018-08-03T09:27:30.564Z,47.50
2018-08-03T09:29:58.198Z,47.50
2018-08-03T09:32:25.818Z,47.30
2018-08-03T09:34:53.493Z,46.80
2018-08-03T09:37:21.157Z,46.90
2018-08-03T09:39:49.252Z,46.30
2018-08-03T09:42:16.917Z,45.70
2018-08-03T09:44:44.616Z,45.80
2018-08-03T09:47:12.263Z,45.60
2018-08-03T09:49:39.868Z,44.80
2018-08-03T09:52:07.512Z,45.00
2018-08-03T09:54:35.246Z,44.70
2018-08-03T09:57:02.962Z,44.20
2018-08-03T09:59:30.636Z,44.10
2018-08-03T10:01:58.261Z,43.90
2018-08-03T10:04:25.890Z,43.70
2018-08-03T10:06:53.500Z,44.00
2018-08-03T10:09:21.138Z,43.60
2018-08-03T10:11:48.768Z,43.10
2018-08-03T10:14:16.426Z,42.20
2018-08-03T10:16:44.046Z,42.00
2018-08-03T10:19:11.681Z,41.40
2018-08-03T10:21:39.286Z,41.00
2018-08-03T10:24:07.124Z,40.50
2018-08-03T10:26:34.841Z,39.90
2018-08-03T10:29:02.472Z,40.40
2018-08-03T10:31:30.133Z,40.80
2018-08-03T10:33:57.797Z,40.40
2018-08-03T10:36:25.443Z,40.20
2018-08-03T10:38:53.126Z,40.60
2018-08-03T10:41:20.759Z,40.50
2018-08-03T10:43:48.397Z,39.90
2018-08-03T10:46:16.053Z,39.30
2018-08-03T10:48:43.755Z,39.00
2018-08-03T10:51:11.463Z,38.90
2018-08-03T10:53:39.138Z,39.40
2018-08-03T10:56:06.791Z,39.40
2018-08-03T10:58:34.453Z,39.50
2018-08-03T11:01:02.078Z,38.80
2018-08-03T11:03:29.730Z,38.10
2018-08-03T11:05:57.417Z,37.90
2018-08-03T11:08:25.113Z,37.60
2018-08-03T11:13:25.111Z,37.20
2018-08-03T11:15:52.803Z,36.70
2018-08-03T11:18:20.452Z,36.10
2018-08-03T11:20:48.065Z,36.50
2018-08-03T11:23:15.694Z,36.40
2018-08-03T11:25:43.452Z,36.70
2018-08-03T11:28:11.104Z,36.40
2018-08-03T11:30:38.748Z,36.00
2018-08-03T11:33:06.488Z,35.50
2018-08-03T11:35:34.120Z,35.20
2018-08-03T11:38:01.750Z,35.40
2018-08-03T11:40:29.478Z,34.60
2018-08-03T11:42:57.146Z,34.50
2018-08-03T11:45:24.766Z,34.70
2018-08-03T11:47:53.012Z,34.90
2018-08-03T11:50:20.677Z,35.00
2018-08-03T11:52:48.443Z,34.50
2018-08-03T11:55:16.073Z,34.60
2018-08-03T11:57:43.730Z,33.70
2018-08-03T12:00:11.372Z,33.60
2018-08-03T12:02:38.996Z,33.50
2018-08-03T12:05:06.658Z,33.00
2018-08-03T12:07:34.296Z,32.90
2018-08-03T12:10:01.914Z,32.70
2018-08-03T12:12:29.656Z,32.50
2018-08-03T12:14:57.287Z,32.20
2018-08-03T12:17:24.918Z,31.90
2018-08-03T12:19:52.520Z,32.90
2018-08-03T12:24:47.696Z,31.80
2018-08-03T12:27:15.374Z,31.20
2018-08-03T12:29:43.420Z,30.90
2018-08-03T12:32:11.066Z,30.30
2018-08-03T12:34:38.796Z,30.00
2018-08-03T12:37:06.499Z,29.70
2018-08-03T12:39:34.074Z,30.30
2018-08-03T12:42:01.716Z,29.30
2018-08-03T12:44:29.326Z,30.00
2018-08-03T12:46:56.930Z,29.90
2018-08-03T12:49:24.554Z,30.00
2018-08-03T12:51:52.181Z,30.10
2018-08-03T12:54:19.880Z,30.10
2018-08-03T12:56:47.551Z,29.80
2018-08-03T12:59:15.178Z,30.00
2018-08-03T13:01:42.892Z,29.60
2018-08-03T13:04:10.575Z,29.40
2018-08-03T13:06:38.226Z,29.30
2018-08-03T13:09:06.119Z,28.90
2018-08-03T13:11:33.753Z,28.80
2018-08-03T13:14:01.423Z,28.80
2018-08-03T13:16:29.114Z,28.90
2018-08-03T13:18:56.761Z,28.90
2018-08-03T13:21:31.667Z,28.70
2018-08-03T13:24:00.286Z,28.60
2018-08-03T13:28:55.976Z,28.10
2018-08-03T13:31:24.799Z,27.90
2018-08-03T13:33:52.432Z,27.30
2018-08-03T13:36:20.893Z,27.40
2018-08-03T13:38:48.494Z,27.40
2018-08-03T13:41:16.915Z,27.40
2018-08-03T13:43:45.106Z,27.10
2018-08-03T13:46:13.328Z,26.80
2018-08-03T13:48:41.391Z,26.60
2018-08-03T13:51:09.063Z,26.40
2018-08-03T13:53:36.749Z,26.30
2018-08-03T13:56:04.484Z,26.10
2018-08-03T13:58:32.120Z,25.80
2018-08-03T14:01:11.399Z,25.60
2018-08-03T14:03:39.028Z,25.80
2018-08-03T14:06:06.650Z,25.70
2018-08-03T14:08:34.603Z,25.20
2018-08-03T14:11:02.235Z,25.60
2018-08-03T14:13:29.869Z,25.60
2018-08-03T14:15:57.553Z,25.00
2018-08-03T14:18:25.183Z,25.20
2018-08-03T14:20:52.802Z,25.10
2018-08-03T14:23:20.467Z,24.70
2018-08-03T14:28:15.657Z,24.40
2018-08-03T14:30:43.604Z,24.60
2018-08-03T14:33:11.549Z,24.90
2018-08-03T14:35:39.231Z,24.50
2018-08-03T14:38:06.917Z,24.30
2018-08-03T14:40:34.605Z,23.90
2018-08-03T14:43:02.589Z,24.30
2018-08-03T14:45:30.329Z,24.00
2018-08-03T14:47:57.943Z,23.80
2018-08-03T14:50:25.575Z,24.10
2018-08-03T14:52:53.241Z,24.00
2018-08-03T14:55:20.933Z,24.10
2018-08-03T14:57:48.571Z,23.90
2018-08-03T15:00:16.256Z,23.60
2018-08-03T15:02:43.884Z,23.70
2018-08-03T15:05:11.676Z,24.00
2018-08-03T15:07:39.382Z,23.80
2018-08-03T15:10:07.033Z,24.00
2018-08-03T15:12:34.764Z,23.90
2018-08-03T15:15:02.659Z,23.50
2018-08-03T15:17:30.289Z,23.70
2018-08-03T15:19:57.906Z,23.70
2018-08-03T15:22:25.760Z,23.40
2018-08-03T15:24:53.377Z,23.30
2018-08-03T15:27:21.034Z,22.80
2018-08-03T15:29:48.701Z,22.80
2018-08-03T15:32:16.409Z,22.90
2018-08-03T15:34:44.255Z,22.90
2018-08-03T15:37:11.955Z,23.00
2018-08-03T15:39:39.566Z,23.20
2018-08-03T15:42:07.258Z,23.10
2018-08-03T15:44:34.926Z,23.10
2018-08-03T15:47:02.600Z,22.90
2018-08-03T15:51:57.875Z,22.60
2018-08-03T15:54:25.569Z,23.10
2018-08-03T15:56:53.325Z,23.20
2018-08-03T15:59:21.022Z,23.00
2018-08-03T16:01:48.732Z,23.40
2018-08-03T16:04:16.402Z,23.70
2018-08-03T16:06:44.088Z,24.00
2018-08-03T16:09:11.704Z,24.60
2018-08-03T16:11:43.883Z,25.10
2018-08-03T16:14:11.520Z,25.50
2018-08-03T16:16:39.164Z,26.40
2018-08-03T16:21:34.639Z,26.50
2018-08-03T16:24:02.629Z,26.30
2018-08-03T16:26:30.296Z,26.40
2018-08-03T16:28:57.960Z,26.20
2018-08-03T16:31:25.658Z,26.10
2018-08-03T16:33:53.766Z,26.00
2018-08-03T16:36:21.479Z,25.70
2018-08-03T16:41:16.683Z,26.00
2018-08-03T16:43:44.859Z,26.20
2018-08-03T16:46:12.536Z,26.40
2018-08-03T16:48:40.173Z,26.70
2018-08-03T16:51:08.835Z,27.10
2018-08-03T16:53:37.055Z,26.80
2018-08-03T16:56:04.812Z,26.60
2018-08-03T16:58:32.452Z,26.70
2018-08-03T17:01:00.124Z,27.10
2018-08-03T17:03:28.478Z,27.20
2018-08-03T17:05:56.187Z,27.20
2018-08-03T17:08:24.057Z,27.10
2018-08-03T17:10:53.185Z,27.10
2018-08-03T17:13:21.410Z,26.90
2018-08-03T17:15:49.957Z,27.10
2018-08-03T17:18:18.204Z,27.10
2018-08-03T17:20:46.356Z,27.00
2018-08-03T17:23:15.508Z,26.90
2018-08-03T17:25:43.546Z,27.20
2018-08-03T17:28:11.900Z,26.60
2018-08-03T17:30:41.334Z,27.00
2018-08-03T17:35:38.936Z,27.20
2018-08-03T17:38:13.938Z,27.20
2018-08-03T17:40:41.954Z,27.80
2018-08-03T17:43:09.954Z,29.00
2018-08-03T17:45:38.044Z,28.90
2018-08-03T17:48:06.108Z,29.00
2018-08-03T17:50:34.300Z,29.30
2018-08-03T17:53:02.328Z,29.90
2018-08-03T17:55:30.268Z,30.40
2018-08-03T17:57:58.420Z,30.50
2018-08-03T18:00:26.422Z,31.00
2018-08-03T18:02:55.242Z,31.20
2018-08-03T18:05:23.266Z,31.20
2018-08-03T18:07:51.537Z,31.20
2018-08-03T18:10:19.535Z,31.60
2018-08-03T18:12:47.507Z,32.00
2018-08-03T18:15:15.872Z,32.60
2018-08-03T18:17:44.018Z,33.00
2018-08-03T18:20:13.562Z,33.20
2018-08-03T18:22:41.567Z,34.10
2018-08-03T18:25:09.707Z,34.30
2018-08-03T18:27:37.810Z,34.30
2018-08-03T18:30:06.252Z,34.70
2018-08-03T18:32:35.035Z,34.90
2018-08-03T18:35:06.657Z,35.90
2018-08-03T18:37:35.077Z,35.20
2018-08-03T18:40:06.166Z,36.20
2018-08-03T18:42:35.886Z,35.90
2018-08-03T18:45:05.540Z,36.30
2018-08-03T18:47:34.009Z,36.60
2018-08-03T18:50:04.396Z,36.70
2018-08-03T18:52:33.901Z,37.10
2018-08-03T18:55:04.282Z,37.30
2018-08-03T18:57:34.490Z,37.60
2018-08-03T19:00:03.280Z,37.60
2018-08-03T19:02:33.189Z,37.90
2018-08-03T19:05:02.517Z,37.90
2018-08-03T19:07:33.004Z,38.20
2018-08-03T19:10:01.663Z,38.50
2018-08-03T19:12:30.813Z,38.60
2018-08-03T19:15:01.842Z,39.30
2018-08-03T19:17:30.545Z,39.20
2018-08-03T19:20:00.617Z,39.40
2018-08-03T19:22:30.514Z,39.60
2018-08-03T19:25:03.972Z,39.90
2018-08-03T19:27:33.991Z,40.20
2018-08-03T19:30:02.980Z,40.40
2018-08-03T19:32:32.342Z,40.50
2018-08-03T19:35:01.650Z,40.60
2018-08-03T19:37:30.440Z,40.80
2018-08-03T19:39:59.498Z,40.80
2018-08-03T19:42:30.210Z,41.20
2018-08-03T19:45:00.889Z,41.30
2018-08-03T19:47:35.213Z,41.70
2018-08-03T19:50:03.934Z,42.00
2018-08-03T19:55:02.113Z,42.30
2018-08-03T19:57:31.463Z,42.60
2018-08-03T20:00:02.556Z,43.60
2018-08-03T20:02:31.522Z,43.00
2018-08-03T20:05:01.472Z,43.40
2018-08-03T20:07:30.624Z,43.70
2018-08-03T20:10:01.490Z,43.80
2018-08-03T20:12:31.851Z,43.90
2018-08-03T20:15:05.079Z,44.20
2018-08-03T20:17:35.681Z,44.40
2018-08-03T20:20:05.886Z,44.80
2018-08-03T20:22:34.880Z,44.90
2018-08-03T20:25:05.385Z,45.00
2018-08-03T20:27:33.113Z,45.10
2018-08-03T20:30:00.784Z,45.20
2018-08-03T20:32:28.738Z,45.30
2018-08-03T20:34:56.490Z,45.60
2018-08-03T20:37:24.265Z,46.00
2018-08-03T20:39:52.155Z,47.10
2018-08-03T20:42:20.024Z,46.70
2018-08-03T20:44:47.910Z,47.20
2018-08-03T20:47:15.784Z,47.90
2018-08-03T20:49:43.843Z,48.20
2018-08-03T20:52:12.641Z,48.50
2018-08-03T20:54:40.384Z,48.80
2018-08-03T20:57:08.202Z,49.30
2018-08-03T20:59:36.073Z,49.90
2018-08-03T21:02:04.051Z,50.40
2018-08-03T21:04:31.932Z,50.50
2018-08-03T21:06:59.902Z,50.90
2018-08-03T21:11:55.534Z,52.60
2018-08-03T21:14:23.378Z,52.00
2018-08-03T21:16:51.364Z,51.70
2018-08-03T21:19:19.577Z,51.50
2018-08-03T21:21:47.672Z,51.10
2018-08-03T21:24:15.538Z,51.30
2018-08-03T21:26:43.536Z,51.60
2018-08-03T21:29:11.441Z,51.70
2018-08-03T21:31:39.529Z,51.70
2018-08-03T21:34:07.758Z,52.00
2018-08-03T21:36:36.028Z,52.00
2018-08-03T21:39:06.839Z,52.00
2018-08-03T21:41:36.368Z,52.20
2018-08-03T21:44:04.787Z,52.50
2018-08-03T21:46:34.125Z,52.80
2018-08-03T21:49:07.462Z,53.00
2018-08-03T21:51:35.803Z,53.30
2018-08-03T21:54:04.175Z,53.70
2018-08-03T21:59:00.932Z,54.70
2018-08-03T22:01:28.726Z,53.70
2018-08-03T22:03:56.509Z,53.70
2018-08-03T22:08:52.307Z,54.30
2018-08-03T22:11:20.276Z,54.40
2018-08-03T22:13:47.942Z,54.60
2018-08-03T22:16:16.499Z,54.60
2018-08-03T22:18:44.362Z,54.50
2018-08-03T22:21:12.141Z,54.50
2018-08-03T22:23:40.601Z,54.70
2018-08-03T22:26:08.797Z,54.80
2018-08-03T22:28:36.467Z,55.30
2018-08-03T22:31:04.259Z,55.70
2018-08-03T22:33:32.348Z,55.90
2018-08-03T22:36:00.067Z,55.90
2018-08-03T22:38:27.966Z,55.90
2018-08-03T22:40:55.939Z,55.90
2018-08-03T22:43:23.919Z,56.30
2018-08-03T22:45:51.948Z,56.30
2018-08-03T22:48:20.143Z,56.30
2018-08-03T22:50:48.112Z,56.50
2018-08-03T22:53:16.978Z,56.70
2018-08-03T22:55:45.085Z,56.70
2018-08-03T22:58:13.257Z,56.80
2018-08-03T23:00:41.278Z,56.90
2018-08-03T23:03:09.291Z,57.30
2018-08-03T23:05:37.302Z,57.50
2018-08-03T23:08:05.369Z,57.50
2018-08-03T23:13:01.040Z,57.60
2018-08-03T23:15:29.365Z,57.70
2018-08-03T23:17:57.434Z,57.80
2018-08-03T23:20:25.464Z,58.00
2018-08-03T23:22:53.492Z,57.80
2018-08-03T23:25:22.294Z,57.90
2018-08-03T23:27:50.254Z,58.00
2018-08-03T23:30:18.275Z,58.10
2018-08-03T23:32:45.978Z,58.00
2018-08-03T23:35:13.627Z,57.80
2018-08-03T23:37:41.239Z,57.50
2018-08-03T23:40:08.954Z,57.70
2018-08-03T23:42:36.583Z,57.90
2018-08-03T23:45:04.883Z,58.20
2018-08-03T23:47:35.764Z,58.20
2018-08-03T23:50:04.879Z,58.20
2018-08-03T23:52:32.552Z,58.60
2018-08-03T23:55:00.208Z,58.90
2018-08-03T23:57:27.994Z,59.00
2018-08-03T23:59:55.640Z,59.20
